Etusivu
METAR-TAF:

METAR-TAF

Lentoasemat :

Tateyama, Japani

Leveyspiiri: 34-59N, Pituuspiiri: 139-50E, korkeus merenpinnasta: 3 m

Tämänhetkinen sää

Tämä raportti tehtiin 18 tuntia ja 42 minuuttia sitten, kello 21.25 UTC
Tuuli 4 kn idästä
Lämpötila 18°C
Kosteus 73%
Ilmanpaine 1014 hPa
Näkyvyys: 6000 m
Muutamia pilviä 300 ft:n korkeudessa
Hajanaisia pilviä 700 ft:n korkeudessa
Hajonneita pilviä

METAR: RJTE 202125Z 09004KT 6000 FEW003 SCT007 BKN/// 18/13 Q1014 RMK 1ST003 4ST007 A2995

Aika: 01:07 (16:07 UTC)


TAF: puuttuu

Säähavainnot ja -ennusteet yli 4000 lentoasemalta (METAR- ja TAF-raportit).

Käytössä olevat sääasemat on merkitty karttaan keltaisilla ja punaisilla pisteillä.

Aseta hiiri pisteen päälle nähdäksesi sääaseman nimen.

Klikkaa sitten nähdäksesi säähavainnot ja -ennusteet.

Kartan vaihtaminen: klikkaa mustalla rastilla varustettuja vihreitä pisteitä, niin voit zoomata sisään; viivalla varustettua vihreää pistettä, niin voit zoomata ulos tai vihreitä nuolia, niin pääset viereisille kartoille.


METAR-TAF: